createdAt,value
2018-08-23T00:00:05.323Z,51.27
2018-08-23T00:02:31.643Z,51.28
2018-08-23T00:04:58.000Z,51.37
2018-08-23T00:07:24.322Z,51.38
2018-08-23T00:09:50.697Z,50.78
2018-08-23T00:12:16.990Z,50.82
2018-08-23T00:14:43.309Z,50.87
2018-08-23T00:17:09.628Z,50.72
2018-08-23T00:19:35.937Z,50.79
2018-08-23T00:22:02.257Z,50.50
2018-08-23T00:24:28.568Z,50.24
2018-08-23T00:26:54.882Z,50.28
2018-08-23T00:29:21.192Z,49.86
2018-08-23T00:31:47.512Z,49.63
2018-08-23T00:34:13.825Z,49.59
2018-08-23T00:36:40.487Z,49.93
2018-08-23T00:39:06.796Z,49.86
2018-08-23T00:41:33.121Z,49.77
2018-08-23T00:44:04.748Z,49.84
2018-08-23T00:46:28.541Z,50.23
2018-08-23T00:48:55.091Z,49.80
2018-08-23T00:51:21.443Z,49.93
2018-08-23T00:53:47.751Z,50.07
2018-08-23T00:56:14.080Z,50.09
2018-08-23T00:58:40.404Z,50.39
2018-08-23T01:01:06.711Z,50.45
2018-08-23T01:03:33.020Z,50.69
2018-08-23T01:05:59.340Z,50.53
2018-08-23T01:08:25.652Z,50.46
2018-08-23T01:10:51.976Z,50.47
2018-08-23T01:13:18.298Z,50.66
2018-08-23T01:15:44.983Z,50.49
2018-08-23T01:18:11.298Z,50.28
2018-08-23T01:20:37.609Z,50.29
2018-08-23T01:23:03.929Z,49.88
2018-08-23T01:25:30.282Z,49.71
2018-08-23T01:27:56.549Z,50.11
2018-08-23T01:30:22.860Z,50.01
2018-08-23T01:32:49.176Z,49.61
2018-08-23T01:35:15.492Z,49.42
2018-08-23T01:37:41.801Z,49.56
2018-08-23T01:40:08.121Z,49.59
2018-08-23T01:42:34.450Z,49.67
2018-08-23T01:45:00.791Z,49.86
2018-08-23T01:47:27.131Z,50.11
2018-08-23T01:49:53.446Z,50.07
2018-08-23T01:52:19.763Z,50.28
2018-08-23T01:54:46.092Z,50.55
2018-08-23T01:57:12.449Z,50.63
2018-08-23T01:59:38.769Z,50.57
2018-08-23T02:02:05.125Z,50.13
2018-08-23T02:04:31.449Z,49.89
2018-08-23T02:06:57.803Z,50.08
2018-08-23T02:09:24.111Z,50.07
2018-08-23T02:11:50.468Z,49.85
2018-08-23T02:14:16.795Z,49.98
2018-08-23T02:16:43.157Z,49.99
2018-08-23T02:19:09.546Z,50.13
2018-08-23T02:21:35.899Z,50.26
2018-08-23T02:24:02.228Z,50.14
2018-08-23T02:26:28.535Z,50.25
2018-08-23T02:28:54.911Z,50.23
2018-08-23T02:31:21.223Z,50.17
2018-08-23T02:33:47.535Z,50.28
2018-08-23T02:36:13.850Z,50.63
2018-08-23T02:38:40.162Z,50.83
2018-08-23T02:41:06.529Z,50.93
2018-08-23T02:43:32.865Z,50.99
2018-08-23T02:45:59.179Z,51.05
2018-08-23T02:48:25.496Z,51.32
2018-08-23T02:50:51.810Z,51.27
2018-08-23T02:53:18.141Z,51.37
2018-08-23T02:55:44.475Z,51.57
2018-08-23T02:58:10.803Z,51.73
2018-08-23T03:00:37.230Z,51.67
2018-08-23T03:03:03.443Z,52.00
2018-08-23T03:05:29.788Z,52.13
2018-08-23T03:07:56.103Z,51.98
2018-08-23T03:10:22.426Z,52.30
2018-08-23T03:12:48.742Z,52.37
2018-08-23T03:15:15.064Z,52.64
2018-08-23T03:17:41.373Z,52.62
2018-08-23T03:20:07.732Z,52.43
2018-08-23T03:22:34.058Z,52.59
2018-08-23T03:25:00.385Z,52.67
2018-08-23T03:27:26.711Z,52.74
2018-08-23T03:29:53.018Z,52.28
2018-08-23T03:32:19.342Z,52.33
2018-08-23T03:34:45.711Z,52.46
2018-08-23T03:37:12.015Z,52.87
2018-08-23T03:39:38.371Z,53.16
2018-08-23T03:42:04.703Z,53.71
2018-08-23T03:44:31.038Z,53.98
2018-08-23T03:46:57.340Z,53.79
2018-08-23T03:49:23.661Z,53.98
2018-08-23T03:51:50.030Z,54.06
2018-08-23T03:54:16.361Z,54.49
2018-08-23T03:56:42.665Z,54.63
2018-08-23T03:59:08.988Z,54.27
2018-08-23T04:01:35.322Z,54.58
2018-08-23T04:04:01.661Z,54.86
2018-08-23T04:06:28.005Z,55.36
2018-08-23T04:08:54.328Z,54.66
2018-08-23T04:11:20.647Z,54.65
2018-08-23T04:13:47.003Z,54.80
2018-08-23T04:16:13.330Z,55.08
2018-08-23T04:18:39.682Z,55.00
2018-08-23T04:21:05.993Z,55.30
2018-08-23T04:23:32.325Z,55.26
2018-08-23T04:25:58.671Z,54.63
2018-08-23T04:28:25.001Z,54.59
2018-08-23T04:30:51.361Z,54.13
2018-08-23T04:33:17.682Z,54.67
2018-08-23T04:35:44.005Z,54.77
2018-08-23T04:38:10.326Z,54.73
2018-08-23T04:40:36.706Z,54.84
2018-08-23T04:43:03.052Z,54.18
2018-08-23T04:45:29.386Z,53.93
2018-08-23T04:47:55.726Z,54.30
2018-08-23T04:50:22.050Z,54.16
2018-08-23T04:52:48.360Z,53.67
2018-08-23T04:55:14.709Z,53.62
2018-08-23T04:57:41.036Z,52.96
2018-08-23T05:00:07.359Z,53.23
2018-08-23T05:02:33.682Z,53.78
2018-08-23T05:05:00.013Z,53.56
2018-08-23T05:07:26.340Z,53.71
2018-08-23T05:09:52.653Z,52.18
2018-08-23T05:12:18.992Z,51.43
2018-08-23T05:14:45.313Z,51.58
2018-08-23T05:17:11.645Z,51.32
2018-08-23T05:19:37.998Z,51.12
2018-08-23T05:22:04.329Z,50.08
2018-08-23T05:24:30.650Z,48.50
2018-08-23T05:26:56.988Z,48.66
2018-08-23T05:29:23.308Z,48.77
2018-08-23T05:31:49.627Z,48.60
2018-08-23T05:34:15.955Z,48.84
2018-08-23T05:36:42.331Z,48.91
2018-08-23T05:39:08.701Z,48.29
2018-08-23T05:41:35.070Z,48.20
2018-08-23T05:44:01.352Z,47.81
2018-08-23T05:46:27.686Z,47.18
2018-08-23T05:48:54.008Z,46.83
2018-08-23T05:51:20.347Z,47.06
2018-08-23T05:53:46.690Z,46.59
2018-08-23T05:56:13.052Z,46.25
2018-08-23T05:58:39.381Z,45.48
2018-08-23T06:01:05.715Z,45.66
2018-08-23T06:03:32.120Z,45.13
2018-08-23T06:05:58.443Z,44.85
2018-08-23T06:08:24.856Z,45.13
2018-08-23T06:10:51.105Z,44.57
2018-08-23T06:13:17.438Z,43.66
2018-08-23T06:15:43.761Z,43.35
2018-08-23T06:18:10.094Z,42.91
2018-08-23T06:20:36.407Z,42.97
2018-08-23T06:23:02.731Z,42.29
2018-08-23T06:25:29.087Z,41.62
2018-08-23T06:27:55.417Z,41.14
2018-08-23T06:30:21.791Z,40.45
2018-08-23T06:32:48.211Z,40.53
2018-08-23T06:35:14.498Z,40.60
2018-08-23T06:37:40.882Z,40.08
2018-08-23T06:40:07.209Z,38.81
2018-08-23T06:42:33.579Z,38.01
2018-08-23T06:44:59.928Z,38.47
2018-08-23T06:47:26.254Z,37.97
2018-08-23T06:49:52.577Z,38.04
2018-08-23T06:52:18.893Z,37.98
2018-08-23T06:54:45.220Z,37.96
2018-08-23T06:57:11.535Z,38.04
2018-08-23T06:59:37.855Z,36.25
2018-08-23T07:02:04.171Z,37.05
2018-08-23T07:04:30.490Z,36.56
2018-08-23T07:06:56.843Z,37.09
2018-08-23T07:09:23.156Z,36.69
2018-08-23T07:11:49.530Z,36.18
2018-08-23T07:14:15.812Z,34.18
2018-08-23T07:19:42.415Z,34.48
2018-08-23T07:22:08.625Z,34.62
2018-08-23T07:24:40.874Z,34.83
2018-08-23T07:27:03.613Z,33.06
2018-08-23T07:29:27.989Z,33.67
2018-08-23T07:31:54.334Z,33.81
2018-08-23T07:34:20.656Z,32.34
2018-08-23T07:36:46.979Z,33.30
2018-08-23T07:39:13.618Z,32.38
2018-08-23T07:41:39.860Z,32.26
2018-08-23T07:44:06.212Z,31.44
2018-08-23T07:46:32.512Z,31.07
2018-08-23T07:48:58.890Z,30.61
2018-08-23T07:51:25.222Z,30.95
2018-08-23T07:53:51.527Z,28.32
2018-08-23T07:56:17.884Z,26.16
2018-08-23T07:58:44.210Z,27.61
2018-08-23T08:01:10.548Z,26.76
2018-08-23T08:03:36.881Z,26.13
2018-08-23T08:06:03.218Z,26.77
2018-08-23T08:08:29.568Z,27.40
2018-08-23T08:10:55.890Z,27.90
2018-08-23T08:13:22.219Z,27.37
2018-08-23T08:15:48.545Z,26.41
2018-08-23T08:18:14.902Z,27.71
2018-08-23T08:20:41.243Z,27.58
2018-08-23T08:23:07.556Z,28.41
2018-08-23T08:25:33.926Z,29.34
2018-08-23T08:28:00.240Z,29.82
2018-08-23T08:30:26.549Z,29.74
2018-08-23T08:32:52.907Z,30.28
2018-08-23T08:35:19.236Z,30.95
2018-08-23T08:37:45.571Z,31.43
2018-08-23T08:40:11.894Z,31.15
2018-08-23T08:42:38.216Z,31.00
2018-08-23T08:45:04.532Z,30.70
2018-08-23T08:47:30.956Z,31.22
2018-08-23T08:49:57.292Z,32.11
2018-08-23T08:52:23.629Z,31.05
2018-08-23T08:54:49.957Z,31.86
2018-08-23T08:57:16.396Z,30.87
2018-08-23T08:59:42.671Z,30.22
2018-08-23T09:02:09.055Z,30.44
2018-08-23T09:04:35.392Z,29.94
2018-08-23T09:07:01.765Z,29.97
2018-08-23T09:09:28.127Z,29.49
2018-08-23T09:11:54.509Z,30.35
2018-08-23T09:14:31.876Z,29.78
2018-08-23T09:16:55.679Z,29.21
2018-08-23T09:19:22.032Z,29.53
2018-08-23T09:21:48.369Z,29.77
2018-08-23T09:24:14.709Z,29.64
2018-08-23T09:26:41.046Z,29.42
2018-08-23T09:29:07.363Z,29.58
2018-08-23T09:31:33.681Z,29.26
2018-08-23T09:34:00.022Z,28.18
2018-08-23T09:36:26.387Z,28.56
2018-08-23T09:38:52.722Z,28.09
2018-08-23T09:41:19.032Z,29.17
2018-08-23T09:43:45.346Z,29.13
2018-08-23T09:46:11.662Z,29.61
2018-08-23T09:48:38.021Z,30.57
2018-08-23T09:51:04.368Z,30.83
2018-08-23T09:53:30.664Z,30.96
2018-08-23T09:55:56.986Z,29.61
2018-08-23T09:58:23.327Z,30.74
2018-08-23T10:00:49.688Z,30.88
2018-08-23T10:03:16.042Z,31.13
2018-08-23T10:05:42.362Z,32.68
2018-08-23T10:08:08.687Z,31.99
2018-08-23T10:10:35.000Z,31.77
2018-08-23T10:13:01.318Z,31.39
2018-08-23T10:15:27.646Z,31.93
2018-08-23T10:17:54.001Z,32.48
2018-08-23T10:20:20.280Z,32.81
2018-08-23T10:22:46.600Z,32.27
2018-08-23T10:25:12.921Z,32.30
2018-08-23T10:27:39.237Z,32.63
2018-08-23T10:30:05.638Z,32.80
2018-08-23T10:32:31.956Z,32.23
2018-08-23T10:34:58.273Z,32.41
2018-08-23T10:37:24.613Z,32.62
2018-08-23T10:39:50.935Z,32.80
2018-08-23T10:42:17.353Z,32.28
2018-08-23T10:44:43.652Z,31.91
2018-08-23T10:47:10.032Z,32.18
2018-08-23T10:49:36.379Z,32.29
2018-08-23T10:52:02.699Z,32.49
2018-08-23T10:54:29.012Z,31.93
2018-08-23T10:56:55.324Z,32.23
2018-08-23T10:59:21.651Z,31.85
2018-08-23T11:01:47.973Z,31.63
2018-08-23T11:04:14.351Z,31.59
2018-08-23T11:06:40.702Z,32.51
2018-08-23T11:09:07.018Z,33.25
2018-08-23T11:11:33.334Z,33.27
2018-08-23T11:13:59.650Z,32.76
2018-08-23T11:16:25.981Z,32.75
2018-08-23T11:18:52.299Z,32.58
2018-08-23T11:21:18.701Z,32.77
2018-08-23T11:23:45.080Z,32.61
2018-08-23T11:26:11.393Z,32.91
2018-08-23T11:28:37.709Z,32.03
2018-08-23T11:31:04.065Z,32.89
2018-08-23T11:33:30.379Z,33.34
2018-08-23T11:35:56.738Z,32.42
2018-08-23T11:38:23.145Z,32.36
2018-08-23T11:40:49.460Z,33.03
2018-08-23T11:43:15.818Z,32.13
2018-08-23T11:45:42.140Z,32.37
2018-08-23T11:48:08.494Z,32.78
2018-08-23T11:50:34.866Z,32.69
2018-08-23T11:53:01.202Z,32.93
2018-08-23T11:55:27.533Z,33.69
2018-08-23T11:57:53.870Z,33.36
2018-08-23T12:00:20.253Z,33.46
2018-08-23T12:02:46.584Z,33.36
2018-08-23T12:05:12.957Z,33.17
2018-08-23T12:07:39.350Z,33.09
2018-08-23T12:10:05.676Z,33.77
2018-08-23T12:12:32.039Z,33.37
2018-08-23T12:14:58.360Z,33.22
2018-08-23T12:17:24.679Z,33.85
2018-08-23T12:19:51.017Z,33.09
2018-08-23T12:22:17.377Z,33.39
2018-08-23T12:24:43.697Z,32.91
2018-08-23T12:27:10.022Z,33.19
2018-08-23T12:29:36.382Z,32.94
2018-08-23T12:32:02.728Z,32.69
2018-08-23T12:34:29.084Z,33.55
2018-08-23T12:36:55.395Z,34.07
2018-08-23T12:39:21.764Z,33.37
2018-08-23T12:41:48.158Z,33.85
2018-08-23T12:44:14.508Z,33.88
2018-08-23T12:46:40.862Z,34.48
2018-08-23T12:49:07.169Z,34.86
2018-08-23T12:51:33.481Z,34.11
2018-08-23T12:53:59.836Z,34.52
2018-08-23T12:56:26.173Z,34.68
2018-08-23T12:58:52.456Z,35.19
2018-08-23T13:01:18.833Z,35.10
2018-08-23T13:03:45.209Z,35.34
2018-08-23T13:06:11.522Z,35.50
2018-08-23T13:08:37.872Z,35.35
2018-08-23T13:11:04.248Z,35.71
2018-08-23T13:13:30.501Z,35.34
2018-08-23T13:15:56.813Z,35.63
2018-08-23T13:18:23.162Z,35.86
2018-08-23T13:20:49.476Z,36.32
2018-08-23T13:23:15.810Z,36.24
2018-08-23T13:25:42.117Z,36.54
2018-08-23T13:28:08.433Z,35.58
2018-08-23T13:30:34.745Z,35.54
2018-08-23T13:33:01.063Z,34.94
2018-08-23T13:35:27.525Z,34.85
2018-08-23T13:37:53.816Z,35.71
2018-08-23T13:40:20.166Z,35.09
2018-08-23T13:42:46.518Z,35.41
2018-08-23T13:45:12.830Z,35.55
2018-08-23T13:47:39.142Z,35.03
2018-08-23T13:50:05.505Z,35.35
2018-08-23T13:52:31.857Z,35.32
2018-08-23T13:54:58.140Z,35.47
2018-08-23T13:57:24.455Z,35.52
2018-08-23T13:59:50.779Z,35.15
2018-08-23T14:02:17.197Z,35.08
2018-08-23T14:04:43.489Z,35.44
2018-08-23T14:07:09.835Z,35.39
2018-08-23T14:09:36.117Z,35.40
2018-08-23T14:12:02.475Z,35.57
2018-08-23T14:14:28.819Z,35.57
2018-08-23T14:16:55.141Z,35.16
2018-08-23T14:19:21.585Z,34.79
2018-08-23T14:21:47.807Z,35.05
2018-08-23T14:24:14.117Z,34.24
2018-08-23T14:26:40.433Z,34.68
2018-08-23T14:29:06.754Z,34.77
2018-08-23T14:31:33.101Z,34.78
2018-08-23T14:33:59.444Z,34.83
2018-08-23T14:36:25.762Z,35.06
2018-08-23T14:38:52.145Z,35.30
2018-08-23T14:41:18.416Z,35.15
2018-08-23T14:43:44.740Z,35.78
2018-08-23T14:46:11.058Z,36.48
2018-08-23T14:48:37.407Z,36.28
2018-08-23T14:51:03.762Z,36.60
2018-08-23T14:53:30.108Z,36.53
2018-08-23T14:55:56.452Z,36.84
2018-08-23T14:58:22.793Z,36.55
2018-08-23T15:00:49.113Z,36.70
2018-08-23T15:03:15.429Z,36.62
2018-08-23T15:05:41.782Z,36.48
2018-08-23T15:08:08.138Z,36.58
2018-08-23T15:10:34.438Z,36.73
2018-08-23T15:13:00.758Z,36.87
2018-08-23T15:15:27.146Z,37.11
2018-08-23T15:17:53.463Z,36.72
2018-08-23T15:20:19.787Z,36.86
2018-08-23T15:22:46.113Z,36.90
2018-08-23T15:25:12.412Z,36.80
2018-08-23T15:27:38.726Z,37.20
2018-08-23T15:30:05.042Z,37.68
2018-08-23T15:32:31.365Z,37.53
2018-08-23T15:34:57.679Z,37.60
2018-08-23T15:37:23.995Z,37.80
2018-08-23T15:39:50.344Z,37.86
2018-08-23T15:42:16.691Z,37.90
2018-08-23T15:44:43.050Z,38.13
2018-08-23T15:47:09.351Z,38.61
2018-08-23T15:49:35.665Z,38.70
2018-08-23T15:52:01.973Z,38.63
2018-08-23T15:54:28.295Z,38.00
2018-08-23T15:56:54.618Z,38.09
2018-08-23T15:59:20.975Z,37.94
2018-08-23T16:01:47.296Z,38.20
2018-08-23T16:04:13.614Z,38.30
2018-08-23T16:06:39.935Z,38.21
2018-08-23T16:09:06.249Z,38.23
2018-08-23T16:11:32.559Z,38.30
2018-08-23T16:13:58.871Z,38.49
2018-08-23T16:16:25.245Z,38.63
2018-08-23T16:18:51.564Z,38.84
2018-08-23T16:21:17.880Z,39.16
2018-08-23T16:23:44.228Z,39.65
2018-08-23T16:26:10.520Z,39.73
2018-08-23T16:28:36.836Z,39.68
2018-08-23T16:31:03.157Z,39.93
2018-08-23T16:33:29.478Z,40.16
2018-08-23T16:35:55.796Z,40.37
2018-08-23T16:38:22.113Z,40.58
2018-08-23T16:40:48.432Z,40.77
2018-08-23T16:43:14.753Z,40.81
2018-08-23T16:45:41.074Z,41.09
2018-08-23T16:48:07.428Z,41.29
2018-08-23T16:50:33.743Z,41.53
2018-08-23T16:53:00.111Z,41.74
2018-08-23T16:55:26.376Z,41.81
2018-08-23T16:57:52.698Z,42.13
2018-08-23T17:00:19.042Z,42.26
2018-08-23T17:02:45.392Z,42.34
2018-08-23T17:05:11.706Z,42.34
2018-08-23T17:07:38.023Z,42.58
2018-08-23T17:10:04.375Z,42.74
2018-08-23T17:12:30.648Z,43.21
2018-08-23T17:14:56.972Z,42.97
2018-08-23T17:17:23.289Z,43.27
2018-08-23T17:19:49.659Z,43.41
2018-08-23T17:22:16.020Z,43.48
2018-08-23T17:24:42.482Z,43.64
2018-08-23T17:27:08.659Z,43.98
2018-08-23T17:29:34.972Z,44.30
2018-08-23T17:32:01.291Z,44.76
2018-08-23T17:34:27.650Z,44.84
2018-08-23T17:36:53.941Z,44.96
2018-08-23T17:39:20.263Z,45.12
2018-08-23T17:41:46.588Z,45.20
2018-08-23T17:44:12.907Z,45.35
2018-08-23T17:46:39.225Z,45.53
2018-08-23T17:49:05.542Z,45.67
2018-08-23T17:51:31.877Z,45.98
2018-08-23T17:53:58.191Z,46.21
2018-08-23T17:56:24.525Z,46.62
2018-08-23T17:58:50.832Z,47.53
2018-08-23T18:01:17.165Z,48.03
2018-08-23T18:03:43.472Z,48.02
2018-08-23T18:06:09.788Z,48.13
2018-08-23T18:08:36.101Z,48.50
2018-08-23T18:11:02.470Z,48.49
2018-08-23T18:13:28.799Z,48.40
2018-08-23T18:15:55.129Z,48.31
2018-08-23T18:18:21.461Z,48.42
2018-08-23T18:20:47.792Z,48.60
2018-08-23T18:23:14.110Z,48.56
2018-08-23T18:25:40.444Z,48.51
2018-08-23T18:28:06.753Z,48.73
2018-08-23T18:30:33.062Z,48.83
2018-08-23T18:32:59.435Z,48.99
2018-08-23T18:35:25.750Z,49.17
2018-08-23T18:37:52.092Z,49.28
2018-08-23T18:40:18.410Z,49.41
2018-08-23T18:42:44.738Z,49.58
2018-08-23T18:45:11.049Z,49.71
2018-08-23T18:47:37.384Z,50.42
2018-08-23T18:50:03.702Z,50.59
2018-08-23T18:52:30.027Z,51.02
2018-08-23T18:54:56.355Z,51.01
2018-08-23T18:57:22.669Z,51.04
2018-08-23T18:59:48.998Z,51.42
2018-08-23T19:02:15.314Z,51.69
2018-08-23T19:04:41.624Z,51.90
2018-08-23T19:07:07.945Z,51.95
2018-08-23T19:09:34.286Z,51.99
2018-08-23T19:12:00.664Z,52.01
2018-08-23T19:14:26.958Z,52.34
2018-08-23T19:16:53.288Z,52.69
2018-08-23T19:19:19.619Z,53.11
2018-08-23T19:21:45.932Z,53.18
2018-08-23T19:24:12.241Z,53.58
2018-08-23T19:26:38.553Z,53.97
2018-08-23T19:29:04.864Z,53.95
2018-08-23T19:31:31.257Z,54.39
2018-08-23T19:33:57.520Z,54.74
2018-08-23T19:36:23.836Z,55.23
2018-08-23T19:38:50.188Z,55.34
2018-08-23T19:41:16.515Z,55.84
2018-08-23T19:43:42.830Z,56.62
2018-08-23T19:46:09.199Z,56.31
2018-08-23T19:48:35.523Z,56.75
2018-08-23T19:51:01.854Z,56.65
2018-08-23T19:53:28.178Z,56.60
2018-08-23T19:55:54.503Z,56.81
2018-08-23T19:58:20.854Z,57.07
2018-08-23T20:00:47.166Z,57.09
2018-08-23T20:03:13.481Z,57.27
2018-08-23T20:05:39.838Z,57.26
2018-08-23T20:08:06.150Z,57.45
2018-08-23T20:10:32.467Z,57.25
2018-08-23T20:12:58.781Z,57.17
2018-08-23T20:15:25.113Z,57.20
2018-08-23T20:17:51.483Z,56.92
2018-08-23T20:20:17.819Z,56.71
2018-08-23T20:22:44.147Z,56.91
2018-08-23T20:25:10.457Z,57.06
2018-08-23T20:27:36.788Z,57.15
2018-08-23T20:30:03.101Z,57.04
2018-08-23T20:32:29.417Z,57.21
2018-08-23T20:34:55.743Z,57.33
2018-08-23T20:37:22.076Z,57.20
2018-08-23T20:39:48.475Z,57.52
2018-08-23T20:42:14.711Z,57.61
2018-08-23T20:44:41.035Z,57.88
2018-08-23T20:47:07.466Z,57.99
2018-08-23T20:49:33.684Z,58.19
2018-08-23T20:52:00.010Z,58.34
2018-08-23T20:54:26.343Z,58.33
2018-08-23T20:56:52.652Z,58.51
2018-08-23T20:59:18.965Z,58.74
2018-08-23T21:01:45.272Z,59.46
2018-08-23T21:06:37.974Z,59.85
2018-08-23T21:09:04.292Z,59.98
2018-08-23T21:11:30.611Z,60.08
2018-08-23T21:13:56.940Z,60.21
2018-08-23T21:16:23.270Z,60.56
2018-08-23T21:18:49.580Z,61.60
2018-08-23T21:21:15.896Z,61.46
2018-08-23T21:23:42.224Z,61.33
2018-08-23T21:26:08.554Z,61.40
2018-08-23T21:28:34.869Z,61.32
2018-08-23T21:31:01.191Z,61.19
2018-08-23T21:33:27.500Z,61.11
2018-08-23T21:35:53.828Z,60.80
2018-08-23T21:38:20.160Z,61.16
2018-08-23T21:40:46.508Z,61.38
2018-08-23T21:43:12.817Z,61.70
2018-08-23T21:45:39.130Z,61.41
2018-08-23T21:48:05.445Z,61.40
2018-08-23T21:50:31.757Z,60.86
2018-08-23T21:52:58.088Z,60.52
2018-08-23T21:55:24.459Z,60.48
2018-08-23T21:57:50.781Z,60.53
2018-08-23T22:00:24.887Z,60.51
2018-08-23T22:02:51.187Z,60.49
2018-08-23T22:05:17.513Z,60.56
2018-08-23T22:07:43.832Z,60.48
2018-08-23T22:10:10.152Z,60.49
2018-08-23T22:12:36.504Z,60.59
2018-08-23T22:15:03.334Z,60.53
2018-08-23T22:17:29.695Z,60.24
2018-08-23T22:19:56.044Z,59.86
2018-08-23T22:22:22.363Z,60.50
2018-08-23T22:24:48.687Z,60.15
2018-08-23T22:27:15.005Z,60.41
2018-08-23T22:29:41.326Z,60.33
2018-08-23T22:32:07.670Z,60.39
2018-08-23T22:34:33.988Z,59.90
2018-08-23T22:37:00.310Z,59.63
2018-08-23T22:39:26.676Z,59.54
2018-08-23T22:41:52.972Z,59.60
2018-08-23T22:44:19.331Z,59.61
2018-08-23T22:46:45.669Z,59.71
2018-08-23T22:49:12.013Z,59.73
2018-08-23T22:51:38.296Z,60.11
2018-08-23T22:54:04.639Z,60.61
2018-08-23T22:56:30.953Z,61.39
2018-08-23T22:58:57.269Z,61.75
2018-08-23T23:01:23.589Z,61.77
2018-08-23T23:03:49.929Z,61.80
2018-08-23T23:06:16.260Z,61.52
2018-08-23T23:08:42.597Z,61.69
2018-08-23T23:11:08.991Z,62.03
2018-08-23T23:13:35.339Z,62.14
2018-08-23T23:16:01.681Z,62.44
2018-08-23T23:18:28.019Z,62.21
2018-08-23T23:20:54.324Z,62.44
2018-08-23T23:23:20.651Z,62.51
2018-08-23T23:25:46.967Z,62.47
2018-08-23T23:28:13.288Z,62.44
2018-08-23T23:30:39.606Z,62.24
2018-08-23T23:33:05.920Z,61.79
2018-08-23T23:35:32.256Z,61.63
2018-08-23T23:37:58.582Z,61.42
2018-08-23T23:40:24.908Z,61.34
2018-08-23T23:42:51.258Z,61.09
2018-08-23T23:45:17.545Z,61.22
2018-08-23T23:47:43.918Z,61.24
2018-08-23T23:50:10.244Z,61.40
2018-08-23T23:52:36.612Z,61.56
2018-08-23T23:55:02.942Z,61.84
2018-08-23T23:57:29.311Z,61.72
2018-08-23T23:59:55.628Z,61.65
